Aeroporto :
LOGIN :

Iscrizione | Disclaimer

   EN    FR    IT 

 










Sommario :    VFR   VFR Marginale   IFR   IFR Intensivo   IFR Molto Intensivo
Visibilità : 
Base nubi : 
>= 8 km
>= 3000ft
5 / 8 km
1000 / 3000 ft
1500m / 5 km
500 / 1000 ft
800 / 1500m
200 / 500 ft
< 800m
< 200 ft
Simboli :   Temporali  Nebbia  Neve Forte  Precipitazioni Forti  Vento > 20 kt
SIGMETs :   Varie  Temporali  Ghiacco  Turbolenza  Onda orograficha  Ceneri Vulcaniche






- Altitudine del aeroporto : 7 ft
- Codice IATA : VCE


LIPZ - Marco Polo Int. Venezia

ULTIMO METAR :
  • 132020Z VRB01KT 3000 BR NSC 16/15 Q1023 NOSIG

METARs OBSOLETI :
  • 131950Z 18001KT 3000 BR NSC 17/16 Q1023 NOSIG
  • 131920Z 14002KT 3000 BR NSC 17/15 Q1023 NOSIG
  • 131850Z 15002KT 3000 BR NSC 17/16 Q1023 NOSIG
  • 131820Z 11003KT 3000 BR NSC 16/15 Q1023 NOSIG
  • 131750Z 11003KT 3000 BR NSC 17/15 Q1023 NOSIG

TAF TAF LIPZ
Valido dal 13 a 18 ore il 15 a 00 ore UTC


131700Z 1318/1424 VRB05KT 3500 BR NSC
BECMG 1320/1323 2000
TEMPO 1400/1409 0300 FG BKN001
BECMG 1408/1411 5000



MetMap, La meteo Aeronautica in un colpo d'occhio ! - Copyright ORBIFLY Dicembre 2007 - Disclaimer

ORBIFLY MET'MAP TEAM :

Programmazione e sviluppo : Alexandra Zaïnal
Concezione e sviluppo : Baudouin d'Aumeries
Co-Programmazione e sviluppo : Marc-Olivier Méhu
Supporto tecnico e logistico : Manuel Goepfert
Aiuto per la traduzione : Arnaldo La Scala

Contatto : metmap@orbifly.com




FONTI E CREDITI :

   NOAA